Terminal Aerodrome Forecast
Issued by NWS

Home | Current Version | Previous Version | Text Only | Print | Product List | Glossary On
Versions: 1 2 3 4 5 6 7 8 9 10 11 12 13 14 15
000
FTUS44 KLZK 301730
TAFHRO
TAF
KHRO 301730Z 3018/3118 VRB03KT P6SM BKN100
     FM301900 14005KT P6SM BKN100
     FM310000 16004KT P6SM SCT100
     FM310900 13003KT 4SM BR BKN250
     FM311400 14004KT P6SM SCT250
      AMD NOT SKED=

USA.gov is the U.S. government's official web portal to all federal, state and local government web resources and services.